sensor_id;sensor_type;location;lat;lon;timestamp;P1;durP1;ratioP1;P2;durP2;ratioP2
41275;SDS011;27010;47.718;12.912;2023-02-27T00:02:14;5.37;;;2.40;;
41275;SDS011;27010;47.718;12.912;2023-02-27T00:05:17;3.37;;;2.73;;
41275;SDS011;27010;47.718;12.912;2023-02-27T00:08:20;4.10;;;2.70;;
41275;SDS011;27010;47.718;12.912;2023-02-27T00:11:22;3.33;;;2.70;;
41275;SDS011;27010;47.718;12.912;2023-02-27T00:14:24;3.77;;;2.70;;
41275;SDS011;27010;47.718;12.912;2023-02-27T00:17:26;3.50;;;2.43;;
41275;SDS011;27010;47.718;12.912;2023-02-27T00:20:30;2.93;;;2.47;;
41275;SDS011;27010;47.718;12.912;2023-02-27T00:23:38;5.87;;;2.40;;
41275;SDS011;27010;47.718;12.912;2023-02-27T00:26:40;4.03;;;2.70;;
41275;SDS011;27010;47.718;12.912;2023-02-27T00:29:43;2.80;;;2.37;;
41275;SDS011;27010;47.718;12.912;2023-02-27T00:32:45;3.50;;;2.77;;
41275;SDS011;27010;47.718;12.912;2023-02-27T00:35:53;4.17;;;2.67;;
41275;SDS011;27010;47.718;12.912;2023-02-27T00:38:56;3.97;;;2.93;;
41275;SDS011;27010;47.718;12.912;2023-02-27T00:41:58;5.00;;;2.80;;
41275;SDS011;27010;47.718;12.912;2023-02-27T00:45:03;3.40;;;2.53;;
41275;SDS011;27010;47.718;12.912;2023-02-27T00:48:06;3.40;;;2.47;;
41275;SDS011;27010;47.718;12.912;2023-02-27T00:51:08;3.60;;;2.67;;
41275;SDS011;27010;47.718;12.912;2023-02-27T00:54:10;4.63;;;3.37;;
41275;SDS011;27010;47.718;12.912;2023-02-27T00:57:12;4.20;;;2.90;;
41275;SDS011;27010;47.718;12.912;2023-02-27T01:00:14;3.10;;;2.70;;
41275;SDS011;27010;47.718;12.912;2023-02-27T01:03:16;3.40;;;2.80;;
41275;SDS011;27010;47.718;12.912;2023-02-27T01:06:18;6.53;;;2.70;;
41275;SDS011;27010;47.718;12.912;2023-02-27T01:09:21;3.47;;;2.80;;
41275;SDS011;27010;47.718;12.912;2023-02-27T01:12:23;3.70;;;2.70;;
41275;SDS011;27010;47.718;12.912;2023-02-27T01:15:25;3.90;;;2.90;;
41275;SDS011;27010;47.718;12.912;2023-02-27T01:18:27;4.60;;;3.10;;
41275;SDS011;27010;47.718;12.912;2023-02-27T01:21:29;6.83;;;3.23;;
41275;SDS011;27010;47.718;12.912;2023-02-27T01:24:32;3.80;;;2.60;;
41275;SDS011;27010;47.718;12.912;2023-02-27T01:27:34;5.13;;;3.43;;
41275;SDS011;27010;47.718;12.912;2023-02-27T01:30:36;5.20;;;2.90;;
41275;SDS011;27010;47.718;12.912;2023-02-27T01:33:38;6.27;;;3.67;;
41275;SDS011;27010;47.718;12.912;2023-02-27T01:36:42;4.93;;;3.50;;
41275;SDS011;27010;47.718;12.912;2023-02-27T01:39:44;4.87;;;3.70;;
41275;SDS011;27010;47.718;12.912;2023-02-27T01:42:46;4.73;;;3.60;;
41275;SDS011;27010;47.718;12.912;2023-02-27T01:45:48;7.73;;;3.50;;
41275;SDS011;27010;47.718;12.912;2023-02-27T01:48:53;6.30;;;3.30;;
41275;SDS011;27010;47.718;12.912;2023-02-27T01:52:01;4.90;;;4.00;;
41275;SDS011;27010;47.718;12.912;2023-02-27T01:55:07;5.90;;;3.87;;
41275;SDS011;27010;47.718;12.912;2023-02-27T01:58:13;4.57;;;3.60;;
41275;SDS011;27010;47.718;12.912;2023-02-27T02:01:16;4.90;;;3.67;;
41275;SDS011;27010;47.718;12.912;2023-02-27T02:07:31;5.10;;;3.83;;
41275;SDS011;27010;47.718;12.912;2023-02-27T02:10:33;5.53;;;4.13;;
41275;SDS011;27010;47.718;12.912;2023-02-27T02:13:36;4.80;;;3.90;;
41275;SDS011;27010;47.718;12.912;2023-02-27T02:20:21;4.97;;;3.93;;
41275;SDS011;27010;47.718;12.912;2023-02-27T02:27:50;7.53;;;4.33;;
41275;SDS011;27010;47.718;12.912;2023-02-27T02:38:21;5.60;;;3.87;;
41275;SDS011;27010;47.718;12.912;2023-02-27T02:48:41;7.43;;;5.10;;
41275;SDS011;27010;47.718;12.912;2023-02-27T02:51:50;7.83;;;4.23;;
41275;SDS011;27010;47.718;12.912;2023-02-27T02:55:07;6.67;;;4.40;;
41275;SDS011;27010;47.718;12.912;2023-02-27T03:01:49;9.77;;;6.90;;
41275;SDS011;27010;47.718;12.912;2023-02-27T03:09:02;5.00;;;4.20;;
41275;SDS011;27010;47.718;12.912;2023-02-27T03:12:08;6.03;;;4.37;;
41275;SDS011;27010;47.718;12.912;2023-02-27T03:15:47;6.37;;;4.67;;
41275;SDS011;27010;47.718;12.912;2023-02-27T03:18:53;5.57;;;4.20;;
41275;SDS011;27010;47.718;12.912;2023-02-27T03:22:07;6.53;;;4.17;;
41275;SDS011;27010;47.718;12.912;2023-02-27T03:25:11;7.13;;;4.53;;
41275;SDS011;27010;47.718;12.912;2023-02-27T03:28:16;7.20;;;5.20;;
41275;SDS011;27010;47.718;12.912;2023-02-27T03:32:03;6.13;;;4.70;;
41275;SDS011;27010;47.718;12.912;2023-02-27T03:34:50;6.73;;;4.80;;
41275;SDS011;27010;47.718;12.912;2023-02-27T03:44:49;8.83;;;4.33;;
41275;SDS011;27010;47.718;12.912;2023-02-27T03:47:55;7.17;;;4.30;;
41275;SDS011;27010;47.718;12.912;2023-02-27T03:50:58;7.00;;;4.37;;
41275;SDS011;27010;47.718;12.912;2023-02-27T03:54:08;5.70;;;4.13;;
41275;SDS011;27010;47.718;12.912;2023-02-27T03:57:13;5.00;;;3.97;;
41275;SDS011;27010;47.718;12.912;2023-02-27T04:00:17;6.43;;;4.57;;
41275;SDS011;27010;47.718;12.912;2023-02-27T04:03:21;6.60;;;3.97;;
41275;SDS011;27010;47.718;12.912;2023-02-27T04:06:23;5.60;;;3.93;;
41275;SDS011;27010;47.718;12.912;2023-02-27T04:13:16;6.47;;;3.87;;
41275;SDS011;27010;47.718;12.912;2023-02-27T04:19:45;4.93;;;3.60;;
41275;SDS011;27010;47.718;12.912;2023-02-27T04:22:57;6.03;;;3.80;;
41275;SDS011;27010;47.718;12.912;2023-02-27T04:26:27;5.07;;;3.83;;
41275;SDS011;27010;47.718;12.912;2023-02-27T04:36:05;6.87;;;3.40;;
41275;SDS011;27010;47.718;12.912;2023-02-27T04:42:54;5.10;;;3.67;;
41275;SDS011;27010;47.718;12.912;2023-02-27T04:45:57;7.50;;;4.40;;
41275;SDS011;27010;47.718;12.912;2023-02-27T04:52:29;10.60;;;6.47;;
41275;SDS011;27010;47.718;12.912;2023-02-27T04:55:35;7.20;;;5.67;;
41275;SDS011;27010;47.718;12.912;2023-02-27T04:59:16;6.50;;;5.07;;
41275;SDS011;27010;47.718;12.912;2023-02-27T05:02:15;4.27;;;3.23;;
41275;SDS011;27010;47.718;12.912;2023-02-27T05:05:26;5.33;;;3.90;;
41275;SDS011;27010;47.718;12.912;2023-02-27T05:08:44;5.73;;;4.00;;
41275;SDS011;27010;47.718;12.912;2023-02-27T05:18:08;8.23;;;4.17;;
41275;SDS011;27010;47.718;12.912;2023-02-27T05:24:35;6.13;;;4.17;;
41275;SDS011;27010;47.718;12.912;2023-02-27T05:31:08;4.00;;;3.10;;
41275;SDS011;27010;47.718;12.912;2023-02-27T05:38:35;5.23;;;3.60;;
41275;SDS011;27010;47.718;12.912;2023-02-27T05:41:32;5.20;;;3.47;;
41275;SDS011;27010;47.718;12.912;2023-02-27T05:44:38;5.33;;;3.13;;
41275;SDS011;27010;47.718;12.912;2023-02-27T05:47:48;7.93;;;4.97;;
41275;SDS011;27010;47.718;12.912;2023-02-27T05:50:54;8.57;;;5.80;;
41275;SDS011;27010;47.718;12.912;2023-02-27T05:54:02;6.80;;;4.90;;
41275;SDS011;27010;47.718;12.912;2023-02-27T05:57:09;6.37;;;4.53;;
41275;SDS011;27010;47.718;12.912;2023-02-27T06:00:18;9.37;;;4.10;;
41275;SDS011;27010;47.718;12.912;2023-02-27T06:03:22;5.97;;;4.40;;
41275;SDS011;27010;47.718;12.912;2023-02-27T06:06:24;5.63;;;3.90;;
41275;SDS011;27010;47.718;12.912;2023-02-27T06:09:27;5.77;;;4.53;;
41275;SDS011;27010;47.718;12.912;2023-02-27T06:12:29;6.33;;;4.37;;
41275;SDS011;27010;47.718;12.912;2023-02-27T06:15:31;5.03;;;4.07;;
41275;SDS011;27010;47.718;12.912;2023-02-27T06:18:33;8.30;;;3.47;;
41275;SDS011;27010;47.718;12.912;2023-02-27T06:21:36;5.77;;;4.10;;
41275;SDS011;27010;47.718;12.912;2023-02-27T06:24:38;5.60;;;3.40;;
41275;SDS011;27010;47.718;12.912;2023-02-27T06:27:39;5.80;;;3.70;;
41275;SDS011;27010;47.718;12.912;2023-02-27T06:30:41;5.33;;;3.83;;
41275;SDS011;27010;47.718;12.912;2023-02-27T06:33:46;5.03;;;3.60;;
41275;SDS011;27010;47.718;12.912;2023-02-27T06:36:48;6.20;;;4.03;;
41275;SDS011;27010;47.718;12.912;2023-02-27T06:39:50;8.20;;;4.67;;
41275;SDS011;27010;47.718;12.912;2023-02-27T06:42:52;9.87;;;4.37;;
41275;SDS011;27010;47.718;12.912;2023-02-27T06:45:55;6.80;;;3.73;;
41275;SDS011;27010;47.718;12.912;2023-02-27T06:48:57;5.13;;;3.67;;
41275;SDS011;27010;47.718;12.912;2023-02-27T06:51:59;7.93;;;3.63;;
41275;SDS011;27010;47.718;12.912;2023-02-27T06:55:02;5.17;;;3.57;;
41275;SDS011;27010;47.718;12.912;2023-02-27T06:58:05;5.03;;;3.53;;
41275;SDS011;27010;47.718;12.912;2023-02-27T07:01:07;4.27;;;3.37;;
41275;SDS011;27010;47.718;12.912;2023-02-27T07:04:11;5.37;;;3.37;;
41275;SDS011;27010;47.718;12.912;2023-02-27T07:07:14;5.47;;;3.33;;
41275;SDS011;27010;47.718;12.912;2023-02-27T07:10:36;6.70;;;4.00;;
41275;SDS011;27010;47.718;12.912;2023-02-27T07:13:40;7.47;;;4.23;;
41275;SDS011;27010;47.718;12.912;2023-02-27T07:16:43;8.73;;;3.60;;
41275;SDS011;27010;47.718;12.912;2023-02-27T07:19:45;5.40;;;3.57;;
41275;SDS011;27010;47.718;12.912;2023-02-27T07:22:47;5.37;;;3.53;;
41275;SDS011;27010;47.718;12.912;2023-02-27T07:25:49;4.87;;;3.17;;
41275;SDS011;27010;47.718;12.912;2023-02-27T07:28:52;6.00;;;3.47;;
41275;SDS011;27010;47.718;12.912;2023-02-27T07:31:55;4.47;;;3.20;;
41275;SDS011;27010;47.718;12.912;2023-02-27T07:34:58;4.57;;;3.47;;
41275;SDS011;27010;47.718;12.912;2023-02-27T07:38:00;5.30;;;3.17;;
41275;SDS011;27010;47.718;12.912;2023-02-27T07:41:02;4.30;;;3.50;;
41275;SDS011;27010;47.718;12.912;2023-02-27T07:44:04;6.07;;;3.63;;
41275;SDS011;27010;47.718;12.912;2023-02-27T07:47:10;7.33;;;4.00;;
41275;SDS011;27010;47.718;12.912;2023-02-27T07:50:14;5.10;;;3.53;;
41275;SDS011;27010;47.718;12.912;2023-02-27T07:53:17;5.50;;;3.50;;
41275;SDS011;27010;47.718;12.912;2023-02-27T07:56:19;4.43;;;3.30;;
41275;SDS011;27010;47.718;12.912;2023-02-27T07:59:21;6.37;;;3.47;;
41275;SDS011;27010;47.718;12.912;2023-02-27T08:02:23;7.27;;;4.10;;
41275;SDS011;27010;47.718;12.912;2023-02-27T08:05:25;5.20;;;3.87;;
41275;SDS011;27010;47.718;12.912;2023-02-27T08:08:27;5.47;;;3.70;;
41275;SDS011;27010;47.718;12.912;2023-02-27T08:11:30;7.00;;;4.23;;
41275;SDS011;27010;47.718;12.912;2023-02-27T08:14:32;4.60;;;2.93;;
41275;SDS011;27010;47.718;12.912;2023-02-27T08:17:34;4.67;;;3.33;;
41275;SDS011;27010;47.718;12.912;2023-02-27T08:20:35;4.43;;;3.20;;
41275;SDS011;27010;47.718;12.912;2023-02-27T08:23:38;5.83;;;3.23;;
41275;SDS011;27010;47.718;12.912;2023-02-27T08:26:43;5.17;;;3.27;;
41275;SDS011;27010;47.718;12.912;2023-02-27T08:29:45;3.63;;;2.97;;
41275;SDS011;27010;47.718;12.912;2023-02-27T08:32:47;4.80;;;2.83;;
41275;SDS011;27010;47.718;12.912;2023-02-27T08:35:49;4.33;;;2.87;;
41275;SDS011;27010;47.718;12.912;2023-02-27T08:38:52;3.50;;;2.73;;
41275;SDS011;27010;47.718;12.912;2023-02-27T08:41:54;5.67;;;2.60;;
41275;SDS011;27010;47.718;12.912;2023-02-27T08:44:56;4.47;;;2.60;;
41275;SDS011;27010;47.718;12.912;2023-02-27T08:47:59;4.97;;;2.80;;
41275;SDS011;27010;47.718;12.912;2023-02-27T08:51:00;4.13;;;2.77;;
41275;SDS011;27010;47.718;12.912;2023-02-27T08:54:02;5.33;;;2.60;;
41275;SDS011;27010;47.718;12.912;2023-02-27T08:57:05;4.10;;;2.30;;
41275;SDS011;27010;47.718;12.912;2023-02-27T09:00:07;3.23;;;2.27;;
41275;SDS011;27010;47.718;12.912;2023-02-27T09:03:13;3.50;;;2.43;;
41275;SDS011;27010;47.718;12.912;2023-02-27T09:06:16;3.43;;;2.17;;
41275;SDS011;27010;47.718;12.912;2023-02-27T09:09:19;2.70;;;2.30;;
41275;SDS011;27010;47.718;12.912;2023-02-27T09:12:24;3.53;;;2.30;;
41275;SDS011;27010;47.718;12.912;2023-02-27T09:15:26;2.33;;;1.77;;
41275;SDS011;27010;47.718;12.912;2023-02-27T09:18:29;4.17;;;2.40;;
41275;SDS011;27010;47.718;12.912;2023-02-27T09:21:32;4.10;;;1.90;;
41275;SDS011;27010;47.718;12.912;2023-02-27T09:24:34;4.40;;;2.20;;
41275;SDS011;27010;47.718;12.912;2023-02-27T09:27:36;5.83;;;2.27;;
41275;SDS011;27010;47.718;12.912;2023-02-27T09:30:41;7.87;;;2.17;;
41275;SDS011;27010;47.718;12.912;2023-02-27T09:33:43;3.53;;;1.97;;
41275;SDS011;27010;47.718;12.912;2023-02-27T09:36:45;2.50;;;1.87;;
41275;SDS011;27010;47.718;12.912;2023-02-27T09:39:47;3.07;;;2.10;;
41275;SDS011;27010;47.718;12.912;2023-02-27T09:42:49;2.87;;;1.80;;
41275;SDS011;27010;47.718;12.912;2023-02-27T09:45:54;2.83;;;2.13;;
41275;SDS011;27010;47.718;12.912;2023-02-27T09:48:58;4.77;;;2.07;;
41275;SDS011;27010;47.718;12.912;2023-02-27T09:52:01;2.73;;;1.70;;
41275;SDS011;27010;47.718;12.912;2023-02-27T09:55:04;2.33;;;2.00;;
41275;SDS011;27010;47.718;12.912;2023-02-27T10:15:16;2.67;;;2.10;;
41275;SDS011;27010;47.718;12.912;2023-02-27T10:18:32;3.63;;;1.70;;
41275;SDS011;27010;47.718;12.912;2023-02-27T10:21:38;3.20;;;1.90;;
41275;SDS011;27010;47.718;12.912;2023-02-27T10:25:04;1.77;;;1.37;;
41275;SDS011;27010;47.718;12.912;2023-02-27T10:28:14;1.90;;;1.53;;
41275;SDS011;27010;47.718;12.912;2023-02-27T10:31:19;2.77;;;1.57;;
41275;SDS011;27010;47.718;12.912;2023-02-27T10:34:25;2.50;;;1.73;;
41275;SDS011;27010;47.718;12.912;2023-02-27T10:37:28;5.13;;;2.40;;
41275;SDS011;27010;47.718;12.912;2023-02-27T10:40:31;5.00;;;2.00;;
41275;SDS011;27010;47.718;12.912;2023-02-27T10:43:36;4.37;;;1.70;;
41275;SDS011;27010;47.718;12.912;2023-02-27T10:46:38;2.97;;;1.97;;
41275;SDS011;27010;47.718;12.912;2023-02-27T10:49:41;4.07;;;2.13;;
41275;SDS011;27010;47.718;12.912;2023-02-27T10:52:48;2.93;;;1.93;;
41275;SDS011;27010;47.718;12.912;2023-02-27T10:55:59;3.57;;;1.83;;
41275;SDS011;27010;47.718;12.912;2023-02-27T10:59:09;4.07;;;2.10;;
41275;SDS011;27010;47.718;12.912;2023-02-27T11:02:19;3.93;;;1.60;;
41275;SDS011;27010;47.718;12.912;2023-02-27T11:05:25;5.27;;;1.97;;
41275;SDS011;27010;47.718;12.912;2023-02-27T11:08:29;4.10;;;2.20;;
41275;SDS011;27010;47.718;12.912;2023-02-27T11:11:36;3.33;;;2.07;;
41275;SDS011;27010;47.718;12.912;2023-02-27T11:14:47;3.37;;;1.90;;
41275;SDS011;27010;47.718;12.912;2023-02-27T11:17:53;2.53;;;2.00;;
41275;SDS011;27010;47.718;12.912;2023-02-27T11:24:19;4.20;;;1.60;;
41275;SDS011;27010;47.718;12.912;2023-02-27T11:27:22;2.70;;;2.00;;
41275;SDS011;27010;47.718;12.912;2023-02-27T11:30:30;3.13;;;2.30;;
41275;SDS011;27010;47.718;12.912;2023-02-27T11:33:33;2.20;;;1.70;;
41275;SDS011;27010;47.718;12.912;2023-02-27T11:40:12;2.57;;;1.90;;
41275;SDS011;27010;47.718;12.912;2023-02-27T11:43:20;2.67;;;2.30;;
41275;SDS011;27010;47.718;12.912;2023-02-27T11:46:25;9.80;;;2.50;;
41275;SDS011;27010;47.718;12.912;2023-02-27T11:56:20;4.93;;;2.77;;
41275;SDS011;27010;47.718;12.912;2023-02-27T12:05:57;6.87;;;2.70;;
41275;SDS011;27010;47.718;12.912;2023-02-27T12:09:10;3.13;;;2.33;;
41275;SDS011;27010;47.718;12.912;2023-02-27T12:22:52;4.73;;;3.17;;
41275;SDS011;27010;47.718;12.912;2023-02-27T12:25:57;3.20;;;2.33;;
41275;SDS011;27010;47.718;12.912;2023-02-27T12:35:52;3.17;;;2.60;;
41275;SDS011;27010;47.718;12.912;2023-02-27T12:38:58;5.17;;;2.80;;
41275;SDS011;27010;47.718;12.912;2023-02-27T12:45:42;4.13;;;2.60;;
41275;SDS011;27010;47.718;12.912;2023-02-27T12:51:56;4.47;;;2.63;;
41275;SDS011;27010;47.718;12.912;2023-02-27T13:04:52;5.23;;;2.57;;
41275;SDS011;27010;47.718;12.912;2023-02-27T13:08:19;3.93;;;2.67;;
41275;SDS011;27010;47.718;12.912;2023-02-27T13:11:53;3.80;;;2.97;;
41275;SDS011;27010;47.718;12.912;2023-02-27T13:15:16;5.80;;;2.87;;
41275;SDS011;27010;47.718;12.912;2023-02-27T13:22:32;4.00;;;2.60;;
41275;SDS011;27010;47.718;12.912;2023-02-27T13:25:34;6.30;;;2.73;;
41275;SDS011;27010;47.718;12.912;2023-02-27T13:28:37;3.97;;;2.80;;
41275;SDS011;27010;47.718;12.912;2023-02-27T13:35:06;9.10;;;3.10;;
41275;SDS011;27010;47.718;12.912;2023-02-27T13:41:46;5.60;;;2.67;;
41275;SDS011;27010;47.718;12.912;2023-02-27T13:44:48;3.43;;;2.60;;
41275;SDS011;27010;47.718;12.912;2023-02-27T13:47:50;3.40;;;2.63;;
41275;SDS011;27010;47.718;12.912;2023-02-27T13:50:53;4.60;;;2.87;;
41275;SDS011;27010;47.718;12.912;2023-02-27T13:54:56;4.90;;;2.60;;
41275;SDS011;27010;47.718;12.912;2023-02-27T13:57:32;4.27;;;3.00;;
41275;SDS011;27010;47.718;12.912;2023-02-27T14:00:35;5.50;;;3.20;;
41275;SDS011;27010;47.718;12.912;2023-02-27T14:03:38;3.50;;;2.73;;
41275;SDS011;27010;47.718;12.912;2023-02-27T14:06:41;4.87;;;3.13;;
41275;SDS011;27010;47.718;12.912;2023-02-27T14:09:46;5.20;;;2.87;;
41275;SDS011;27010;47.718;12.912;2023-02-27T14:12:55;4.67;;;3.03;;
41275;SDS011;27010;47.718;12.912;2023-02-27T14:15:59;8.80;;;3.03;;
41275;SDS011;27010;47.718;12.912;2023-02-27T14:19:03;6.27;;;2.90;;
41275;SDS011;27010;47.718;12.912;2023-02-27T14:22:27;4.30;;;2.57;;
41275;SDS011;27010;47.718;12.912;2023-02-27T14:25:33;8.83;;;3.00;;
41275;SDS011;27010;47.718;12.912;2023-02-27T14:28:46;3.30;;;2.70;;
41275;SDS011;27010;47.718;12.912;2023-02-27T14:31:52;3.93;;;3.00;;
41275;SDS011;27010;47.718;12.912;2023-02-27T14:34:54;5.77;;;3.40;;
41275;SDS011;27010;47.718;12.912;2023-02-27T14:38:01;4.80;;;3.23;;
41275;SDS011;27010;47.718;12.912;2023-02-27T14:41:06;5.93;;;2.97;;
41275;SDS011;27010;47.718;12.912;2023-02-27T14:44:22;5.50;;;3.47;;
41275;SDS011;27010;47.718;12.912;2023-02-27T14:47:28;10.83;;;3.97;;
41275;SDS011;27010;47.718;12.912;2023-02-27T14:50:32;4.50;;;2.90;;
41275;SDS011;27010;47.718;12.912;2023-02-27T14:53:38;3.70;;;3.10;;
41275;SDS011;27010;47.718;12.912;2023-02-27T14:56:41;3.73;;;2.80;;
41275;SDS011;27010;47.718;12.912;2023-02-27T14:59:54;6.03;;;2.80;;
41275;SDS011;27010;47.718;12.912;2023-02-27T15:02:57;4.63;;;3.10;;
41275;SDS011;27010;47.718;12.912;2023-02-27T15:06:00;6.20;;;3.13;;
41275;SDS011;27010;47.718;12.912;2023-02-27T15:09:03;5.63;;;3.20;;
41275;SDS011;27010;47.718;12.912;2023-02-27T15:12:06;3.60;;;2.90;;
41275;SDS011;27010;47.718;12.912;2023-02-27T15:15:15;6.30;;;3.40;;
41275;SDS011;27010;47.718;12.912;2023-02-27T15:18:21;5.30;;;3.07;;
41275;SDS011;27010;47.718;12.912;2023-02-27T15:21:25;5.67;;;3.37;;
41275;SDS011;27010;47.718;12.912;2023-02-27T15:24:31;4.80;;;3.00;;
41275;SDS011;27010;47.718;12.912;2023-02-27T15:27:50;4.97;;;3.23;;
41275;SDS011;27010;47.718;12.912;2023-02-27T15:30:53;5.00;;;3.20;;
41275;SDS011;27010;47.718;12.912;2023-02-27T15:33:57;5.50;;;3.60;;
41275;SDS011;27010;47.718;12.912;2023-02-27T15:37:00;3.43;;;3.00;;
41275;SDS011;27010;47.718;12.912;2023-02-27T15:40:04;5.70;;;3.20;;
41275;SDS011;27010;47.718;12.912;2023-02-27T15:43:09;5.33;;;4.00;;
41275;SDS011;27010;47.718;12.912;2023-02-27T15:46:11;5.80;;;3.53;;
41275;SDS011;27010;47.718;12.912;2023-02-27T15:49:17;6.67;;;3.20;;
41275;SDS011;27010;47.718;12.912;2023-02-27T15:52:24;6.83;;;3.80;;
41275;SDS011;27010;47.718;12.912;2023-02-27T15:55:28;4.70;;;3.13;;
41275;SDS011;27010;47.718;12.912;2023-02-27T15:58:35;6.40;;;3.50;;
41275;SDS011;27010;47.718;12.912;2023-02-27T16:01:39;4.87;;;3.27;;
41275;SDS011;27010;47.718;12.912;2023-02-27T16:04:43;7.37;;;3.97;;
41275;SDS011;27010;47.718;12.912;2023-02-27T16:07:46;3.37;;;2.50;;
41275;SDS011;27010;47.718;12.912;2023-02-27T16:10:50;6.40;;;4.00;;
41275;SDS011;27010;47.718;12.912;2023-02-27T16:14:01;19.03;;;6.63;;
41275;SDS011;27010;47.718;12.912;2023-02-27T16:17:19;7.13;;;4.20;;
41275;SDS011;27010;47.718;12.912;2023-02-27T16:23:29;4.60;;;3.07;;
41275;SDS011;27010;47.718;12.912;2023-02-27T16:26:32;6.70;;;3.90;;
41275;SDS011;27010;47.718;12.912;2023-02-27T16:29:39;4.90;;;3.17;;
41275;SDS011;27010;47.718;12.912;2023-02-27T16:32:44;5.20;;;2.90;;
41275;SDS011;27010;47.718;12.912;2023-02-27T16:35:48;5.57;;;3.90;;
41275;SDS011;27010;47.718;12.912;2023-02-27T16:38:51;7.13;;;3.83;;
41275;SDS011;27010;47.718;12.912;2023-02-27T16:41:54;6.40;;;4.03;;
41275;SDS011;27010;47.718;12.912;2023-02-27T16:44:57;10.33;;;3.90;;
41275;SDS011;27010;47.718;12.912;2023-02-27T16:48:03;5.27;;;3.73;;
41275;SDS011;27010;47.718;12.912;2023-02-27T16:51:07;8.50;;;4.07;;
41275;SDS011;27010;47.718;12.912;2023-02-27T16:54:14;5.17;;;3.87;;
41275;SDS011;27010;47.718;12.912;2023-02-27T16:57:17;8.27;;;4.10;;
41275;SDS011;27010;47.718;12.912;2023-02-27T17:00:19;6.53;;;4.03;;
41275;SDS011;27010;47.718;12.912;2023-02-27T17:03:23;5.87;;;4.27;;
41275;SDS011;27010;47.718;12.912;2023-02-27T17:06:25;6.87;;;3.57;;
41275;SDS011;27010;47.718;12.912;2023-02-27T17:09:28;6.13;;;4.53;;
41275;SDS011;27010;47.718;12.912;2023-02-27T17:12:31;10.13;;;4.57;;
41275;SDS011;27010;47.718;12.912;2023-02-27T17:15:34;7.03;;;4.60;;
41275;SDS011;27010;47.718;12.912;2023-02-27T17:18:36;7.73;;;4.03;;
41275;SDS011;27010;47.718;12.912;2023-02-27T17:21:38;6.37;;;4.00;;
41275;SDS011;27010;47.718;12.912;2023-02-27T17:24:41;5.23;;;3.73;;
41275;SDS011;27010;47.718;12.912;2023-02-27T17:27:43;7.40;;;3.93;;
41275;SDS011;27010;47.718;12.912;2023-02-27T17:30:45;6.10;;;3.40;;
41275;SDS011;27010;47.718;12.912;2023-02-27T17:33:48;5.70;;;3.60;;
41275;SDS011;27010;47.718;12.912;2023-02-27T17:36:51;5.17;;;3.70;;
41275;SDS011;27010;47.718;12.912;2023-02-27T17:39:53;5.23;;;3.57;;
41275;SDS011;27010;47.718;12.912;2023-02-27T17:42:55;6.10;;;3.80;;
41275;SDS011;27010;47.718;12.912;2023-02-27T17:45:57;7.00;;;3.80;;
41275;SDS011;27010;47.718;12.912;2023-02-27T17:48:59;5.17;;;3.53;;
41275;SDS011;27010;47.718;12.912;2023-02-27T17:52:01;4.17;;;3.37;;
41275;SDS011;27010;47.718;12.912;2023-02-27T17:55:05;7.20;;;4.20;;
41275;SDS011;27010;47.718;12.912;2023-02-27T17:58:09;7.33;;;3.53;;
41275;SDS011;27010;47.718;12.912;2023-02-27T18:01:12;5.20;;;3.47;;
41275;SDS011;27010;47.718;12.912;2023-02-27T18:04:15;5.57;;;3.53;;
41275;SDS011;27010;47.718;12.912;2023-02-27T18:07:18;8.27;;;3.90;;
41275;SDS011;27010;47.718;12.912;2023-02-27T18:10:20;6.33;;;3.70;;
41275;SDS011;27010;47.718;12.912;2023-02-27T18:13:23;8.07;;;5.13;;
41275;SDS011;27010;47.718;12.912;2023-02-27T18:16:26;6.47;;;3.50;;
41275;SDS011;27010;47.718;12.912;2023-02-27T18:19:29;9.70;;;4.20;;
41275;SDS011;27010;47.718;12.912;2023-02-27T18:22:32;6.97;;;4.27;;
41275;SDS011;27010;47.718;12.912;2023-02-27T18:25:35;9.67;;;4.33;;
41275;SDS011;27010;47.718;12.912;2023-02-27T18:28:37;8.77;;;3.83;;
41275;SDS011;27010;47.718;12.912;2023-02-27T18:31:40;7.40;;;4.00;;
41275;SDS011;27010;47.718;12.912;2023-02-27T18:34:44;9.60;;;4.13;;
41275;SDS011;27010;47.718;12.912;2023-02-27T18:37:46;7.00;;;3.67;;
41275;SDS011;27010;47.718;12.912;2023-02-27T18:40:48;5.13;;;3.50;;
41275;SDS011;27010;47.718;12.912;2023-02-27T18:43:50;5.80;;;3.43;;
41275;SDS011;27010;47.718;12.912;2023-02-27T18:46:52;4.90;;;3.90;;
41275;SDS011;27010;47.718;12.912;2023-02-27T18:49:54;7.33;;;4.77;;
41275;SDS011;27010;47.718;12.912;2023-02-27T18:52:56;6.27;;;3.93;;
41275;SDS011;27010;47.718;12.912;2023-02-27T18:56:01;6.53;;;3.70;;
41275;SDS011;27010;47.718;12.912;2023-02-27T18:59:04;7.13;;;4.10;;
41275;SDS011;27010;47.718;12.912;2023-02-27T19:02:12;5.93;;;3.60;;
41275;SDS011;27010;47.718;12.912;2023-02-27T19:05:15;6.03;;;3.63;;
41275;SDS011;27010;47.718;12.912;2023-02-27T19:08:17;5.60;;;3.30;;
41275;SDS011;27010;47.718;12.912;2023-02-27T19:11:29;5.97;;;3.80;;
41275;SDS011;27010;47.718;12.912;2023-02-27T19:14:36;6.07;;;2.97;;
41275;SDS011;27010;47.718;12.912;2023-02-27T19:17:39;4.67;;;3.20;;
41275;SDS011;27010;47.718;12.912;2023-02-27T19:20:41;8.30;;;4.20;;
41275;SDS011;27010;47.718;12.912;2023-02-27T19:23:43;6.83;;;3.73;;
41275;SDS011;27010;47.718;12.912;2023-02-27T19:26:44;6.23;;;3.93;;
41275;SDS011;27010;47.718;12.912;2023-02-27T19:29:47;7.90;;;3.50;;
41275;SDS011;27010;47.718;12.912;2023-02-27T19:32:50;7.33;;;3.07;;
41275;SDS011;27010;47.718;12.912;2023-02-27T19:35:52;5.73;;;3.30;;
41275;SDS011;27010;47.718;12.912;2023-02-27T19:38:55;5.90;;;3.87;;
41275;SDS011;27010;47.718;12.912;2023-02-27T19:41:57;4.33;;;3.17;;
41275;SDS011;27010;47.718;12.912;2023-02-27T19:44:59;4.50;;;3.20;;
41275;SDS011;27010;47.718;12.912;2023-02-27T19:48:01;4.83;;;2.90;;
41275;SDS011;27010;47.718;12.912;2023-02-27T19:51:04;5.93;;;2.80;;
41275;SDS011;27010;47.718;12.912;2023-02-27T19:54:10;4.67;;;3.43;;
41275;SDS011;27010;47.718;12.912;2023-02-27T19:57:14;6.47;;;3.97;;
41275;SDS011;27010;47.718;12.912;2023-02-27T20:00:16;7.77;;;3.47;;
41275;SDS011;27010;47.718;12.912;2023-02-27T20:03:20;5.93;;;3.70;;
41275;SDS011;27010;47.718;12.912;2023-02-27T20:06:24;7.60;;;3.60;;
41275;SDS011;27010;47.718;12.912;2023-02-27T20:09:28;5.00;;;3.00;;
41275;SDS011;27010;47.718;12.912;2023-02-27T20:12:30;4.70;;;3.67;;
41275;SDS011;27010;47.718;12.912;2023-02-27T20:15:32;5.73;;;3.87;;
41275;SDS011;27010;47.718;12.912;2023-02-27T20:18:34;8.00;;;4.60;;
41275;SDS011;27010;47.718;12.912;2023-02-27T20:21:40;5.10;;;4.03;;
41275;SDS011;27010;47.718;12.912;2023-02-27T20:24:42;5.70;;;3.67;;
41275;SDS011;27010;47.718;12.912;2023-02-27T20:27:46;5.40;;;2.93;;
41275;SDS011;27010;47.718;12.912;2023-02-27T20:30:48;5.87;;;3.53;;
41275;SDS011;27010;47.718;12.912;2023-02-27T20:33:50;5.83;;;3.87;;
41275;SDS011;27010;47.718;12.912;2023-02-27T20:36:53;8.20;;;3.57;;
41275;SDS011;27010;47.718;12.912;2023-02-27T20:39:55;4.67;;;3.47;;
41275;SDS011;27010;47.718;12.912;2023-02-27T20:42:57;6.07;;;3.47;;
41275;SDS011;27010;47.718;12.912;2023-02-27T20:46:06;4.63;;;3.80;;
41275;SDS011;27010;47.718;12.912;2023-02-27T20:49:11;7.27;;;3.43;;
41275;SDS011;27010;47.718;12.912;2023-02-27T20:52:16;5.27;;;3.70;;
41275;SDS011;27010;47.718;12.912;2023-02-27T20:55:17;5.10;;;4.00;;
41275;SDS011;27010;47.718;12.912;2023-02-27T20:58:20;11.47;;;6.60;;
41275;SDS011;27010;47.718;12.912;2023-02-27T21:01:22;31.13;;;18.33;;